| time (UTC) | temp F | wind direction | speed MPH | gust MPH | rain 1hr in | rain 24hr in | rain mn in | humidity % | barometer mb |
| 20260510225121 | 64 | 148 | 0.0 | 0.0 | 0.00 | 0.00 | 0.45 | 99 | 1010.4 |
| 20260510223920 | 64 | 148 | 0.0 | 0.0 | 0.00 | 0.00 | 0.45 | 99 | 1010.4 |
| 20260510223335 | 64 | 152 | 0.0 | 1.0 | 0.00 | 0.00 | 0.45 | 99 | 1010.4 |
| 20260510222740 | 64 | 136 | 0.0 | 0.0 | 0.00 | 0.00 | 0.45 | 99 | 1010.8 |
| 20260510222141 | 64 | 161 | 1.0 | 1.0 | 0.00 | 0.00 | 0.44 | 99 | 1010.4 |
| 20260510221542 | 65 | 157 | 3.0 | 4.0 | 0.00 | 0.00 | 0.44 | 99 | 1010.4 |
| 20260510220929 | 65 | 67 | 2.0 | 2.0 | 0.00 | 0.00 | 0.20 | 99 | 1010.8 |
| 20260510220312 | 65 | 136 | 2.0 | 2.0 | 0.00 | 0.00 | 0.18 | 99 | 1010.4 |
| 20260510215120 | 66 | 150 | 1.0 | 1.0 | 0.00 | 0.00 | 0.18 | 99 | 1009.8 |
| 20260510214518 | 66 | 131 | 1.0 | 1.0 | 0.00 | 0.00 | 0.18 | 99 | 1010.1 |
| 20260510213910 | 66 | 216 | 1.0 | 1.0 | 0.00 | 0.00 | 0.18 | 99 | 1009.4 |
| 20260510213350 | 65 | 177 | 0.0 | 1.0 | 0.00 | 0.00 | 0.18 | 99 | 1009.8 |
| 20260510212721 | 65 | 341 | 2.0 | 3.0 | 0.00 | 0.00 | 0.13 | 99 | 1009.8 |
| 20260510212154 | 65 | 142 | 1.0 | 1.0 | 0.00 | 0.00 | 0.10 | 99 | 1009.4 |
| 20260510210926 | 66 | 97 | 1.0 | 1.0 | 0.00 | 0.00 | 0.01 | 95 | 1008.8 |
| 20260510210336 | 67 | 97 | 1.0 | 1.0 | 0.00 | 0.00 | 0.01 | 94 | 1009.1 |
| 20260510205746 | 69 | 106 | 1.0 | 1.0 | 0.00 | 0.00 | 0.00 | 88 | 1008.8 |
| 20260510205138 | 73 | 106 | 7.0 | 9.0 | 0.00 | 0.00 | 0.00 | 69 | 1009.1 |
| 20260510204552 | 76 | 74 | 2.0 | 3.0 | 0.00 | 0.00 | 0.00 | 59 | 1008.8 |
| 20260510203930 | 76 | 153 | 2.0 | 3.0 | 0.00 | 0.00 | 0.00 | 58 | 1008.8 |
| 20260510203333 | 77 | 58 | 2.0 | 2.0 | 0.00 | 0.00 | 0.00 | 56 | 1008.8 |
| 20260510202745 | 77 | 174 | 2.0 | 2.0 | 0.00 | 0.00 | 0.00 | 55 | 1008.4 |
| 20260510202136 | 78 | 133 | 6.0 | 7.0 | 0.00 | 0.00 | 0.00 | 55 | 1008.8 |
| 20260510200912 | 79 | 120 | 5.0 | 9.0 | 0.00 | 0.00 | 0.00 | 54 | 1008.8 |
| 20260510200339 | 79 | 140 | 2.0 | 2.0 | 0.00 | 0.00 | 0.00 | 53 | 1008.8 |
| 20260510195720 | 78 | 124 | 2.0 | 4.0 | 0.00 | 0.00 | 0.00 | 54 | 1009.1 |
| 20260510195153 | 79 | 358 | 2.0 | 2.0 | 0.00 | 0.00 | 0.00 | 53 | 1009.1 |
| 20260510194535 | 77 | 108 | 3.0 | 4.0 | 0.00 | 0.00 | 0.00 | 54 | 1009.1 |
| 20260510193952 | 77 | 102 | 4.0 | 6.0 | 0.00 | 0.00 | 0.00 | 54 | 1009.1 |
| 20260510193321 | 77 | 119 | 5.0 | 7.0 | 0.00 | 0.00 | 0.00 | 54 | 1009.4 |
| 20260510192731 | 77 | 54 | 2.0 | 4.0 | 0.00 | 0.00 | 0.00 | 53 | 1009.4 |
| 20260510192132 | 77 | 123 | 1.0 | 2.0 | 0.00 | 0.00 | 0.00 | 54 | 1009.4 |
| 20260510191534 | 77 | 297 | 6.0 | 7.0 | 0.00 | 0.00 | 0.00 | 55 | 1009.4 |
| 20260510190926 | 77 | 126 | 3.0 | 4.0 | 0.00 | 0.00 | 0.00 | 57 | 1009.4 |
| 20260510190319 | 76 | 162 | 0.0 | 0.0 | 0.00 | 0.00 | 0.00 | 55 | 1009.4 |
| 20260510185121 | 76 | 268 | 0.0 | 1.0 | 0.00 | 0.00 | 0.00 | 54 | 1009.4 |
| 20260510184544 | 75 | 61 | 1.0 | 1.0 | 0.00 | 0.00 | 0.00 | 54 | 1009.8 |
| 20260510183943 | 74 | 36 | 1.0 | 1.0 | 0.00 | 0.00 | 0.00 | 55 | 1009.8 |
| 20260510183349 | 75 | 53 | 3.0 | 3.0 | 0.00 | 0.00 | 0.00 | 55 | 1009.8 |
| 20260510182738 | 75 | 89 | 0.0 | 1.0 | 0.00 | 0.00 | 0.00 | 55 | 1009.4 |
| 20260510182115 | 75 | 129 | 1.0 | 2.0 | 0.00 | 0.00 | 0.00 | 54 | 1009.4 |
| 20260510181544 | 75 | 137 | 6.0 | 10.0 | 0.00 | 0.00 | 0.00 | 54 | 1009.4 |
| 20260510180934 | 76 | 97 | 12.0 | 14.0 | 0.00 | 0.00 | 0.00 | 55 | 1009.4 |
| 20260510180317 | 76 | 84 | 3.0 | 3.0 | 0.00 | 0.00 | 0.00 | 57 | 1009.1 |
| 20260510175741 | 76 | 144 | 3.0 | 3.0 | 0.00 | 0.00 | 0.00 | 58 | 1009.1 |
| 20260510175152 | 76 | 162 | 0.0 | 1.0 | 0.00 | 0.00 | 0.00 | 59 | 1009.4 |
| 20260510173950 | 76 | 145 | 0.0 | 1.0 | 0.00 | 0.00 | 0.00 | 60 | 1009.1 |
| 20260510173326 | 75 | 22 | 2.0 | 2.0 | 0.00 | 0.00 | 0.00 | 62 | 1009.4 |
| 20260510172724 | 76 | 152 | 1.0 | 1.0 | 0.00 | 0.00 | 0.00 | 61 | 1009.1 |
| 20260510172111 | 76 | 92 | 3.0 | 3.0 | 0.00 | 0.00 | 0.00 | 59 | 1009.4 |
| 20260510170336 | 76 | 89 | 2.0 | 2.0 | 0.00 | 0.00 | 0.00 | 53 | 1009.1 |
| 20260510165751 | 77 | 187 | 0.0 | 0.0 | 0.00 | 0.00 | 0.00 | 52 | 1009.1 |
| 20260510164545 | 78 | 144 | 4.0 | 7.0 | 0.00 | 0.00 | 0.00 | 51 | 1009.1 |
| 20260510163944 | 78 | 130 | 13.0 | 16.0 | 0.00 | 0.00 | 0.00 | 50 | 1009.1 |
| 20260510162725 | 78 | 138 | 8.0 | 12.0 | 0.00 | 0.00 | 0.00 | 53 | 1009.1 |
| 20260510161529 | 77 | 116 | 10.0 | 12.0 | 0.00 | 0.00 | 0.00 | 54 | 1009.1 |
| 20260510160950 | 76 | 120 | 3.0 | 3.0 | 0.00 | 0.00 | 0.00 | 57 | 1009.4 |
| 20260510155736 | 76 | 131 | 6.0 | 8.0 | 0.00 | 0.00 | 0.00 | 55 | 1009.4 |
| 20260510155150 | 76 | 117 | 10.0 | 12.0 | 0.00 | 0.00 | 0.00 | 56 | 1009.4 |
| 20260510154523 | 76 | 159 | 4.0 | 6.0 | 0.00 | 0.00 | 0.00 | 57 | 1009.4 |
| 20260510153949 | 75 | 84 | 3.0 | 6.0 | 0.00 | 0.00 | 0.00 | 58 | 1009.4 |
| 20260510153322 | 75 | 119 | 3.0 | 6.0 | 0.00 | 0.00 | 0.00 | 58 | 1009.4 |
| 20260510152733 | 74 | 157 | 2.0 | 3.0 | 0.00 | 0.00 | 0.00 | 60 | 1009.4 |
| 20260510152149 | 74 | 119 | 4.0 | 4.0 | 0.00 | 0.00 | 0.00 | 60 | 1009.4 |
| 20260510151535 | 73 | 133 | 7.0 | 9.0 | 0.00 | 0.00 | 0.00 | 59 | 1009.4 |
| 20260510150914 | 73 | 105 | 8.0 | 12.0 | 0.00 | 0.00 | 0.00 | 61 | 1009.8 |
| 20260510150339 | 73 | 76 | 4.0 | 7.0 | 0.00 | 0.00 | 0.00 | 62 | 1009.4 |
| 20260510145717 | 72 | 131 | 5.0 | 7.0 | 0.00 | 0.00 | 0.00 | 63 | 1009.8 |
| 20260510145138 | 72 | 126 | 4.0 | 6.0 | 0.00 | 0.00 | 0.00 | 65 | 1009.8 |
| 20260510144510 | 72 | 90 | 5.0 | 7.0 | 0.00 | 0.00 | 0.00 | 66 | 1009.8 |
| 20260510143926 | 71 | 124 | 3.0 | 3.0 | 0.00 | 0.00 | 0.00 | 68 | 1009.8 |
| 20260510143335 | 70 | 122 | 7.0 | 9.0 | 0.00 | 0.00 | 0.00 | 69 | 1009.8 |
| 20260510142713 | 69 | 75 | 1.0 | 1.0 | 0.00 | 0.00 | 0.00 | 71 | 1009.8 |
| 20260510142128 | 68 | 121 | 2.0 | 2.0 | 0.00 | 0.00 | 0.00 | 81 | 1009.8 |
| 20260510140929 | 67 | 131 | 0.0 | 0.0 | 0.00 | 0.00 | 0.00 | 88 | 1009.8 |
| 20260510135715 | 64 | 129 | 0.0 | 0.0 | 0.00 | 0.00 | 0.00 | 92 | 1009.8 |
| 20260510135116 | 64 | 131 | 0.0 | 0.0 | 0.00 | 0.00 | 0.00 | 95 | 1009.8 |
| 20260510134511 | 62 | 133 | 0.0 | 0.0 | 0.00 | 0.00 | 0.00 | 98 | 1009.8 |
| 20260510133348 | 61 | 140 | 1.0 | 1.0 | 0.00 | 0.00 | 0.00 | 97 | 1009.8 |
| 20260510132749 | 60 | 132 | 0.0 | 1.0 | 0.00 | 0.00 | 0.00 | 99 | 1009.8 |
| 20260510131517 | 57 | 131 | 0.0 | 0.0 | 0.00 | 0.00 | 0.00 | 99 | 1009.8 |
| 20260510130920 | 56 | 131 | 1.0 | 1.0 | 0.00 | 0.00 | 0.00 | 99 | 1009.8 |
| 20260510130331 | 55 | 123 | 0.0 | 0.0 | 0.00 | 0.00 | 0.00 | 99 | 1010.1 |
| 20260510125751 | 54 | 113 | 0.0 | 0.0 | 0.00 | 0.00 | 0.00 | 99 | 1010.1 |
| 20260510125144 | 54 | 133 | 0.0 | 0.0 | 0.00 | 0.00 | 0.00 | 99 | 1009.8 |
| 20260510123308 | 51 | 167 | 0.0 | 0.0 | 0.00 | 0.00 | 0.00 | 99 | 1010.1 |
| 20260510122729 | 50 | 167 | 0.0 | 0.0 | 0.00 | 0.00 | 0.00 | 99 | 1010.1 |
| 20260510122133 | 50 | 167 | 0.0 | 0.0 | 0.00 | 0.00 | 0.00 | 99 | 1010.1 |
| 20260510121511 | 49 | 167 | 0.0 | 0.0 | 0.00 | 0.00 | 0.00 | 99 | 1010.1 |
| 20260510120949 | 49 | 167 | 0.0 | 0.0 | 0.00 | 0.00 | 0.00 | 99 | 1010.1 |
| 20260510115743 | 48 | 167 | 0.0 | 0.0 | 0.00 | 0.00 | 0.00 | 99 | 1009.8 |
| 20260510114518 | 47 | 196 | 0.0 | 0.0 | 0.00 | 0.00 | 0.00 | 99 | 1009.8 |
| 20260510113914 | 47 | 196 | 0.0 | 0.0 | 0.00 | 0.00 | 0.00 | 99 | 1009.8 |
| 20260510112710 | 47 | 196 | 0.0 | 0.0 | 0.00 | 0.00 | 0.00 | 99 | 1009.4 |
| 20260510112131 | 47 | 196 | 0.0 | 0.0 | 0.00 | 0.00 | 0.00 | 99 | 1009.4 |
| 20260510111532 | 47 | 196 | 0.0 | 0.0 | 0.00 | 0.00 | 0.00 | 99 | 1009.1 |
| 20260510110933 | 47 | 196 | 0.0 | 0.0 | 0.00 | 0.00 | 0.00 | 99 | 1009.1 |
| 20260510110312 | 47 | 196 | 0.0 | 0.0 | 0.00 | 0.00 | 0.00 | 99 | 1009.1 |
| 20260510105747 | 47 | 196 | 0.0 | 0.0 | 0.00 | 0.00 | 0.00 | 99 | 1008.8 |
| 20260510105143 | 47 | 196 | 0.0 | 0.0 | 0.00 | 0.00 | 0.00 | 99 | 1009.1 |
| 20260510103934 | 47 | 196 | 0.0 | 0.0 | 0.00 | 0.00 | 0.00 | 99 | 1009.1 |
| 20260510103324 | 47 | 196 | 1.0 | 1.0 | 0.00 | 0.00 | 0.00 | 99 | 1008.8 |
| 20260510102717 | 47 | 196 | 0.0 | 0.0 | 0.00 | 0.00 | 0.00 | 99 | 1008.8 |
| 20260510102142 | 47 | 196 | 0.0 | 0.0 | 0.00 | 0.00 | 0.00 | 99 | 1008.8 |
| 20260510101510 | 47 | 196 | 0.0 | 0.0 | 0.00 | 0.00 | 0.00 | 99 | 1008.8 |
| 20260510100351 | 47 | 196 | 0.0 | 0.0 | 0.00 | 0.00 | 0.00 | 99 | 1008.4 |
| 20260510095710 | 48 | 196 | 0.0 | 0.0 | 0.00 | 0.00 | 0.00 | 99 | 1008.4 |
| 20260510095139 | 48 | 196 | 0.0 | 0.0 | 0.00 | 0.00 | 0.00 | 99 | 1008.4 |
| 20260510094539 | 48 | 196 | 0.0 | 0.0 | 0.00 | 0.00 | 0.00 | 99 | 1008.4 |
| 20260510093908 | 48 | 196 | 0.0 | 0.0 | 0.00 | 0.00 | 0.00 | 99 | 1008.1 |
| 20260510093327 | 48 | 196 | 0.0 | 0.0 | 0.00 | 0.00 | 0.00 | 99 | 1008.1 |
| 20260510092725 | 48 | 196 | 0.0 | 0.0 | 0.00 | 0.00 | 0.00 | 99 | 1008.1 |
| 20260510092129 | 48 | 196 | 0.0 | 0.0 | 0.00 | 0.00 | 0.00 | 99 | 1008.1 |
| 20260510091537 | 48 | 196 | 0.0 | 0.0 | 0.00 | 0.00 | 0.00 | 99 | 1008.1 |
| 20260510090909 | 48 | 196 | 0.0 | 0.0 | 0.00 | 0.00 | 0.00 | 99 | 1008.1 |
| 20260510090341 | 48 | 196 | 0.0 | 0.0 | 0.00 | 0.00 | 0.00 | 99 | 1008.1 |
| 20260510085716 | 48 | 196 | 0.0 | 0.0 | 0.00 | 0.00 | 0.00 | 99 | 1007.7 |
| 20260510083948 | 48 | 196 | 0.0 | 0.0 | 0.00 | 0.00 | 0.00 | 99 | 1007.7 |
| 20260510083352 | 48 | 196 | 0.0 | 0.0 | 0.00 | 0.00 | 0.00 | 99 | 1007.7 |
| 20260510082744 | 48 | 196 | 0.0 | 0.0 | 0.00 | 0.00 | 0.00 | 99 | 1007.7 |
| 20260510082119 | 48 | 196 | 0.0 | 0.0 | 0.00 | 0.00 | 0.00 | 99 | 1007.4 |
| 20260510081549 | 48 | 196 | 0.0 | 0.0 | 0.00 | 0.00 | 0.00 | 99 | 1007.7 |
| 20260510080918 | 48 | 196 | 0.0 | 0.0 | 0.00 | 0.00 | 0.00 | 99 | 1007.7 |
| 20260510080327 | 48 | 196 | 0.0 | 0.0 | 0.00 | 0.00 | 0.00 | 99 | 1007.7 |
| 20260510075750 | 49 | 196 | 1.0 | 1.0 | 0.00 | 0.00 | 0.00 | 99 | 1007.4 |
| 20260510074542 | 49 | 196 | 1.0 | 1.0 | 0.00 | 0.00 | 0.00 | 99 | 1007.7 |
| 20260510073942 | 49 | 196 | 0.0 | 0.0 | 0.00 | 0.00 | 0.00 | 99 | 1007.7 |
| 20260510073347 | 49 | 196 | 0.0 | 0.0 | 0.00 | 0.00 | 0.00 | 99 | 1007.4 |
| 20260510072734 | 49 | 196 | 0.0 | 0.0 | 0.00 | 0.00 | 0.00 | 99 | 1007.7 |
| 20260510072126 | 49 | 196 | 0.0 | 0.0 | 0.00 | 0.00 | 0.00 | 99 | 1007.4 |
| 20260510071546 | 49 | 196 | 0.0 | 1.0 | 0.00 | 0.00 | 0.00 | 99 | 1007.4 |
| 20260510070925 | 49 | 196 | 0.0 | 0.0 | 0.00 | 0.00 | 0.00 | 99 | 1007.4 |
| 20260510070312 | 49 | 196 | 0.0 | 0.0 | 0.00 | 0.00 | 0.00 | 99 | 1007.4 |
| 20260510065734 | 49 | 196 | 0.0 | 0.0 | 0.00 | 0.00 | 0.00 | 99 | 1007.4 |
| 20260510065141 | 50 | 196 | 0.0 | 0.0 | 0.00 | 0.00 | 0.00 | 99 | 1007.4 |
| 20260510063923 | 50 | 196 | 0.0 | 0.0 | 0.00 | 0.00 | 0.00 | 99 | 1007.1 |
| 20260510063330 | 50 | 196 | 0.0 | 0.0 | 0.00 | 0.00 | 0.00 | 99 | 1007.1 |
| 20260510062709 | 50 | 196 | 0.0 | 0.0 | 0.00 | 0.00 | 0.00 | 99 | 1007.1 |
| 20260510062146 | 50 | 196 | 1.0 | 1.0 | 0.00 | 0.00 | 0.00 | 99 | 1007.4 |
| 20260510061534 | 50 | 196 | 0.0 | 0.0 | 0.00 | 0.00 | 0.00 | 99 | 1007.4 |
| 20260510060949 | 50 | 196 | 0.0 | 0.0 | 0.00 | 0.00 | 0.00 | 99 | 1007.7 |
| 20260510060341 | 50 | 197 | 0.0 | 0.0 | 0.00 | 0.00 | 0.00 | 99 | 1007.4 |
| 20260510055725 | 50 | 197 | 0.0 | 0.0 | 0.00 | 0.00 | 0.00 | 99 | 1007.4 |
| 20260510055118 | 50 | 197 | 0.0 | 0.0 | 0.00 | 0.00 | 0.00 | 99 | 1007.4 |
| 20260510054538 | 50 | 197 | 0.0 | 0.0 | 0.00 | 0.00 | 0.00 | 99 | 1007.4 |
| 20260510053314 | 50 | 197 | 0.0 | 0.0 | 0.00 | 0.00 | 0.00 | 99 | 1007.4 |
| 20260510052149 | 50 | 196 | 0.0 | 0.0 | 0.00 | 0.00 | 0.00 | 99 | 1007.7 |
| 20260510051548 | 50 | 196 | 0.0 | 0.0 | 0.00 | 0.00 | 0.00 | 99 | 1007.4 |
| 20260510050912 | 50 | 196 | 0.0 | 0.0 | 0.00 | 0.00 | 0.00 | 99 | 1007.4 |
| 20260510050332 | 50 | 197 | 0.0 | 0.0 | 0.00 | 0.00 | 0.00 | 99 | 1007.7 |
| 20260510045721 | 50 | 196 | 0.0 | 0.0 | 0.00 | 0.00 | 0.00 | 99 | 1007.7 |
| 20260510045110 | 50 | 196 | 0.0 | 0.0 | 0.00 | 0.00 | 0.00 | 99 | 1007.4 |
| 20260510043931 | 50 | 197 | 0.0 | 0.0 | 0.00 | 0.00 | 0.00 | 99 | 1007.7 |
| 20260510043338 | 50 | 197 | 0.0 | 0.0 | 0.00 | 0.00 | 0.00 | 99 | 1007.7 |
| 20260510042711 | 50 | 197 | 0.0 | 0.0 | 0.00 | 0.00 | 0.00 | 99 | 1007.7 |
| 20260510042145 | 51 | 197 | 0.0 | 0.0 | 0.00 | 0.00 | 0.00 | 99 | 1007.7 |
| 20260510041533 | 51 | 197 | 0.0 | 0.0 | 0.00 | 0.00 | 0.00 | 99 | 1007.7 |
| 20260510040924 | 51 | 197 | 0.0 | 0.0 | 0.00 | 0.00 | 0.00 | 99 | 1007.4 |
| 20260510040343 | 51 | 197 | 0.0 | 0.0 | 0.00 | 0.00 | 0.00 | 99 | 1007.7 |
| 20260510035747 | 51 | 197 | 0.0 | 0.0 | 0.00 | 0.00 | 0.00 | 99 | 1007.4 |
| 20260510035123 | 51 | 197 | 0.0 | 0.0 | 0.00 | 0.00 | 0.00 | 99 | 1007.7 |
| 20260510034541 | 51 | 197 | 0.0 | 0.0 | 0.00 | 0.00 | 0.00 | 99 | 1007.7 |
| 20260510033909 | 51 | 197 | 0.0 | 0.0 | 0.00 | 0.00 | 0.00 | 99 | 1007.7 |
| 20260510033316 | 52 | 197 | 0.0 | 0.0 | 0.00 | 0.00 | 0.00 | 99 | 1007.4 |
| 20260510032752 | 52 | 197 | 0.0 | 0.0 | 0.00 | 0.00 | 0.00 | 99 | 1007.4 |
| 20260510032147 | 52 | 197 | 0.0 | 0.0 | 0.00 | 0.00 | 0.00 | 99 | 1007.7 |
| 20260510031524 | 53 | 197 | 0.0 | 0.0 | 0.00 | 0.00 | 0.00 | 99 | 1007.4 |
| 20260510030919 | 53 | 197 | 0.0 | 0.0 | 0.00 | 0.00 | 0.00 | 99 | 1007.4 |
| 20260510030328 | 53 | 197 | 0.0 | 0.0 | 0.00 | 0.00 | 0.00 | 99 | 1007.4 |
| 20260510025732 | 53 | 197 | 0.0 | 0.0 | 0.00 | 0.00 | 0.00 | 99 | 1007.4 |
| 20260510025123 | 53 | 197 | 0.0 | 0.0 | 0.00 | 0.00 | 0.00 | 99 | 1007.1 |
| 20260510023940 | 53 | 197 | 0.0 | 0.0 | 0.00 | 0.00 | 0.00 | 99 | 1007.4 |
| 20260510022739 | 54 | 197 | 0.0 | 0.0 | 0.00 | 0.00 | 0.00 | 99 | 1007.1 |
| 20260510021510 | 54 | 197 | 0.0 | 0.0 | 0.00 | 0.00 | 0.00 | 99 | 1006.7 |
| 20260510020952 | 54 | 197 | 0.0 | 0.0 | 0.00 | 0.00 | 0.00 | 99 | 1006.4 |
| 20260510015740 | 55 | 197 | 0.0 | 0.0 | 0.00 | 0.00 | 0.00 | 99 | 1006.4 |
| 20260510015143 | 55 | 197 | 0.0 | 0.0 | 0.00 | 0.00 | 0.00 | 99 | 1006.4 |
| 20260510014511 | 56 | 197 | 0.0 | 0.0 | 0.00 | 0.00 | 0.00 | 99 | 1006.4 |
| 20260510013946 | 56 | 197 | 0.0 | 0.0 | 0.00 | 0.00 | 0.00 | 99 | 1006.0 |
| 20260510012725 | 56 | 197 | 0.0 | 0.0 | 0.00 | 0.00 | 0.00 | 99 | 1006.0 |
| 20260510012131 | 57 | 197 | 0.0 | 0.0 | 0.00 | 0.00 | 0.00 | 98 | 1006.0 |
| 20260510011556 | 57 | 197 | 0.0 | 0.0 | 0.00 | 0.00 | 0.00 | 98 | 1006.0 |
| 20260510010951 | 57 | 197 | 0.0 | 0.0 | 0.00 | 0.00 | 0.00 | 97 | 1006.0 |
| 20260510010348 | 58 | 197 | 0.0 | 0.0 | 0.00 | 0.00 | 0.00 | 97 | 1005.7 |
| 20260510005143 | 59 | 197 | 0.0 | 1.0 | 0.00 | 0.00 | 0.00 | 95 | 1005.7 |
| 20260510004550 | 59 | 197 | 0.0 | 0.0 | 0.00 | 0.00 | 0.00 | 94 | 1005.4 |
| 20260510003307 | 60 | 197 | 0.0 | 0.0 | 0.00 | 0.00 | 0.00 | 93 | 1005.4 |
| 20260510002716 | 61 | 197 | 0.0 | 0.0 | 0.00 | 0.00 | 0.00 | 92 | 1005.4 |
| 20260510001511 | 62 | 198 | 1.0 | 1.0 | 0.00 | 0.00 | 0.00 | 90 | 1005.0 |
| 20260510000943 | 62 | 197 | 0.0 | 0.0 | 0.00 | 0.00 | 0.00 | 89 | 1005.0 |
| 20260510000349 | 63 | 198 | 1.0 | 1.0 | 0.00 | 0.00 | 0.00 | 87 | 1005.0 |
| 20260509235710 | 63 | 197 | 0.0 | 0.0 | 0.00 | 0.00 | 0.00 | 86 | 1005.0 |
| 20260509235126 | 64 | 198 | 0.0 | 0.0 | 0.00 | 0.00 | 0.00 | 86 | 1005.0 |
| 20260509234543 | 64 | 197 | 0.0 | 0.0 | 0.00 | 0.00 | 0.00 | 84 | 1005.0 |
| 20260509233949 | 66 | 199 | 0.0 | 0.0 | 0.00 | 0.00 | 0.00 | 83 | 1005.0 |
| 20260509233339 | 66 | 149 | 0.0 | 0.0 | 0.00 | 0.00 | 0.00 | 80 | 1005.0 |
| 20260509232130 | 70 | 134 | 1.0 | 1.0 | 0.00 | 0.00 | 0.00 | 73 | 1004.7 |
| 20260509231509 | 70 | 223 | 1.0 | 1.0 | 0.00 | 0.00 | 0.00 | 71 | 1004.7 |
| 20260509230951 | 70 | 233 | 2.0 | 2.0 | 0.00 | 0.00 | 0.00 | 67 | 1005.0 |
| 20260509230332 | 70 | 121 | 3.0 | 3.0 | 0.00 | 0.00 | 0.00 | 67 | 1004.7 |